sensor_id;sensor_type;location;lat;lon;timestamp;P1;durP1;ratioP1;P2;durP2;ratioP2
63900;SDS011;50538;53.482;10.294;2023-05-07T00:16:18;6.22;;;2.55;;
63900;SDS011;50538;53.482;10.294;2023-05-07T00:37:38;6.50;;;2.67;;
63900;SDS011;50538;53.482;10.294;2023-05-07T00:58:53;6.97;;;2.72;;
63900;SDS011;50538;53.482;10.294;2023-05-07T01:09:31;5.00;;;2.25;;
63900;SDS011;50538;53.482;10.294;2023-05-07T01:30:35;6.40;;;2.58;;
63900;SDS011;50538;53.482;10.294;2023-05-07T01:41:19;4.35;;;1.95;;
63900;SDS011;50538;53.482;10.294;2023-05-07T02:02:19;6.05;;;2.17;;
63900;SDS011;50538;53.482;10.294;2023-05-07T02:12:47;5.50;;;2.42;;
63900;SDS011;50538;53.482;10.294;2023-05-07T02:34:15;7.70;;;2.28;;
63900;SDS011;50538;53.482;10.294;2023-05-07T02:45:20;6.40;;;2.35;;
63900;SDS011;50538;53.482;10.294;2023-05-07T04:21:14;5.72;;;2.30;;
63900;SDS011;50538;53.482;10.294;2023-05-07T04:31:23;4.68;;;2.13;;
63900;SDS011;50538;53.482;10.294;2023-05-07T04:41:25;6.53;;;2.63;;
63900;SDS011;50538;53.482;10.294;2023-05-07T04:51:26;4.85;;;2.10;;
63900;SDS011;50538;53.482;10.294;2023-05-07T05:01:35;5.88;;;2.35;;
63900;SDS011;50538;53.482;10.294;2023-05-07T05:11:56;6.43;;;2.75;;
63900;SDS011;50538;53.482;10.294;2023-05-07T05:22:00;6.22;;;2.70;;
63900;SDS011;50538;53.482;10.294;2023-05-07T05:32:43;4.85;;;2.15;;
63900;SDS011;50538;53.482;10.294;2023-05-07T06:04:14;5.50;;;2.15;;
63900;SDS011;50538;53.482;10.294;2023-05-07T06:14:59;4.60;;;2.10;;
63900;SDS011;50538;53.482;10.294;2023-05-07T06:25:31;5.05;;;1.85;;
63900;SDS011;50538;53.482;10.294;2023-05-07T06:35:37;7.00;;;2.35;;
63900;SDS011;50538;53.482;10.294;2023-05-07T06:45:43;7.75;;;2.63;;
63900;SDS011;50538;53.482;10.294;2023-05-07T06:55:48;4.73;;;2.00;;
63900;SDS011;50538;53.482;10.294;2023-05-07T07:06:06;5.30;;;2.40;;
63900;SDS011;50538;53.482;10.294;2023-05-07T07:16:08;5.25;;;1.60;;
63900;SDS011;50538;53.482;10.294;2023-05-07T07:26:28;4.95;;;1.83;;
63900;SDS011;50538;53.482;10.294;2023-05-07T07:36:30;4.90;;;2.43;;
63900;SDS011;50538;53.482;10.294;2023-05-07T07:46:52;6.45;;;2.28;;
63900;SDS011;50538;53.482;10.294;2023-05-07T07:57:09;5.07;;;2.30;;
63900;SDS011;50538;53.482;10.294;2023-05-07T08:07:15;14.57;;;5.68;;
63900;SDS011;50538;53.482;10.294;2023-05-07T08:17:25;5.28;;;2.33;;
63900;SDS011;50538;53.482;10.294;2023-05-07T08:27:31;3.83;;;1.77;;
63900;SDS011;50538;53.482;10.294;2023-05-07T08:37:42;4.63;;;2.22;;
63900;SDS011;50538;53.482;10.294;2023-05-07T08:47:55;5.68;;;2.58;;
63900;SDS011;50538;53.482;10.294;2023-05-07T08:58:20;6.22;;;3.00;;
63900;SDS011;50538;53.482;10.294;2023-05-07T09:08:24;6.47;;;2.08;;
63900;SDS011;50538;53.482;10.294;2023-05-07T09:19:02;7.28;;;2.80;;
63900;SDS011;50538;53.482;10.294;2023-05-07T09:29:10;4.22;;;2.13;;
63900;SDS011;50538;53.482;10.294;2023-05-07T09:39:16;4.57;;;1.77;;
63900;SDS011;50538;53.482;10.294;2023-05-07T09:49:28;4.68;;;2.30;;
63900;SDS011;50538;53.482;10.294;2023-05-07T09:59:31;4.65;;;2.03;;
63900;SDS011;50538;53.482;10.294;2023-05-07T10:09:43;3.90;;;2.25;;
63900;SDS011;50538;53.482;10.294;2023-05-07T10:20:15;4.05;;;2.22;;
63900;SDS011;50538;53.482;10.294;2023-05-07T10:30:33;9.68;;;3.10;;
63900;SDS011;50538;53.482;10.294;2023-05-07T10:51:19;3.30;;;1.80;;
63900;SDS011;50538;53.482;10.294;2023-05-07T11:01:54;5.75;;;3.70;;
63900;SDS011;50538;53.482;10.294;2023-05-07T11:22:59;3.05;;;1.55;;
63900;SDS011;50538;53.482;10.294;2023-05-07T11:33:01;2.53;;;1.30;;
63900;SDS011;50538;53.482;10.294;2023-05-07T11:53:22;2.42;;;1.45;;
63900;SDS011;50538;53.482;10.294;2023-05-07T12:14:32;3.13;;;1.50;;
63900;SDS011;50538;53.482;10.294;2023-05-07T12:24:56;2.45;;;1.27;;
63900;SDS011;50538;53.482;10.294;2023-05-07T12:35:14;3.00;;;1.30;;
63900;SDS011;50538;53.482;10.294;2023-05-07T12:56:10;3.95;;;1.20;;
63900;SDS011;50538;53.482;10.294;2023-05-07T13:06:41;3.53;;;1.38;;
63900;SDS011;50538;53.482;10.294;2023-05-07T13:16:47;5.95;;;1.30;;
63900;SDS011;50538;53.482;10.294;2023-05-07T13:27:13;2.13;;;1.15;;
63900;SDS011;50538;53.482;10.294;2023-05-07T13:37:46;1.55;;;0.93;;
63900;SDS011;50538;53.482;10.294;2023-05-07T13:48:11;3.30;;;1.50;;
63900;SDS011;50538;53.482;10.294;2023-05-07T13:58:13;3.33;;;1.40;;
63900;SDS011;50538;53.482;10.294;2023-05-07T14:08:25;2.65;;;1.33;;
63900;SDS011;50538;53.482;10.294;2023-05-07T14:18:50;2.25;;;1.20;;
63900;SDS011;50538;53.482;10.294;2023-05-07T14:39:37;2.80;;;1.30;;
63900;SDS011;50538;53.482;10.294;2023-05-07T15:00:32;2.33;;;1.27;;
63900;SDS011;50538;53.482;10.294;2023-05-07T15:10:55;2.83;;;1.30;;
63900;SDS011;50538;53.482;10.294;2023-05-07T15:21:04;3.00;;;1.50;;
63900;SDS011;50538;53.482;10.294;2023-05-07T15:31:04;3.83;;;1.30;;
63900;SDS011;50538;53.482;10.294;2023-05-07T15:41:06;1.95;;;1.20;;
63900;SDS011;50538;53.482;10.294;2023-05-07T15:51:07;3.83;;;1.10;;
63900;SDS011;50538;53.482;10.294;2023-05-07T16:01:08;3.33;;;1.35;;
63900;SDS011;50538;53.482;10.294;2023-05-07T16:11:09;2.45;;;1.48;;
63900;SDS011;50538;53.482;10.294;2023-05-07T16:31:16;2.50;;;1.05;;
63900;SDS011;50538;53.482;10.294;2023-05-07T16:41:23;2.75;;;1.38;;
63900;SDS011;50538;53.482;10.294;2023-05-07T16:51:42;3.42;;;1.30;;
63900;SDS011;50538;53.482;10.294;2023-05-07T17:01:46;3.85;;;1.48;;
63900;SDS011;50538;53.482;10.294;2023-05-07T17:11:46;2.37;;;1.50;;
63900;SDS011;50538;53.482;10.294;2023-05-07T17:21:51;2.42;;;1.40;;
63900;SDS011;50538;53.482;10.294;2023-05-07T17:32:32;2.50;;;1.45;;
63900;SDS011;50538;53.482;10.294;2023-05-07T17:42:35;5.50;;;1.17;;
63900;SDS011;50538;53.482;10.294;2023-05-07T17:52:36;2.42;;;1.23;;
63900;SDS011;50538;53.482;10.294;2023-05-07T18:02:37;5.70;;;1.30;;
63900;SDS011;50538;53.482;10.294;2023-05-07T18:12:40;2.13;;;1.30;;
63900;SDS011;50538;53.482;10.294;2023-05-07T18:22:40;3.03;;;1.40;;
63900;SDS011;50538;53.482;10.294;2023-05-07T18:32:41;1.35;;;1.00;;
63900;SDS011;50538;53.482;10.294;2023-05-07T18:42:41;1.80;;;1.10;;
63900;SDS011;50538;53.482;10.294;2023-05-07T18:52:42;1.40;;;0.98;;
63900;SDS011;50538;53.482;10.294;2023-05-07T19:02:42;2.03;;;1.10;;
63900;SDS011;50538;53.482;10.294;2023-05-07T19:12:42;2.15;;;1.15;;
63900;SDS011;50538;53.482;10.294;2023-05-07T19:22:43;3.97;;;1.27;;
63900;SDS011;50538;53.482;10.294;2023-05-07T19:32:43;2.40;;;1.20;;
63900;SDS011;50538;53.482;10.294;2023-05-07T19:42:44;1.73;;;0.90;;
63900;SDS011;50538;53.482;10.294;2023-05-07T19:52:44;2.40;;;1.00;;
63900;SDS011;50538;53.482;10.294;2023-05-07T20:02:45;3.20;;;1.27;;
63900;SDS011;50538;53.482;10.294;2023-05-07T20:12:47;1.58;;;0.93;;
63900;SDS011;50538;53.482;10.294;2023-05-07T20:22:49;2.33;;;0.98;;
63900;SDS011;50538;53.482;10.294;2023-05-07T20:32:50;2.63;;;1.05;;
63900;SDS011;50538;53.482;10.294;2023-05-07T20:42:50;2.60;;;1.10;;
63900;SDS011;50538;53.482;10.294;2023-05-07T20:52:51;2.13;;;1.20;;
63900;SDS011;50538;53.482;10.294;2023-05-07T21:03:37;1.95;;;1.10;;
63900;SDS011;50538;53.482;10.294;2023-05-07T21:14:04;3.13;;;1.17;;
63900;SDS011;50538;53.482;10.294;2023-05-07T21:24:28;1.98;;;1.10;;
63900;SDS011;50538;53.482;10.294;2023-05-07T21:44:58;2.03;;;1.00;;
63900;SDS011;50538;53.482;10.294;2023-05-07T21:55:01;2.95;;;1.10;;
63900;SDS011;50538;53.482;10.294;2023-05-07T22:05:01;2.13;;;1.20;;
63900;SDS011;50538;53.482;10.294;2023-05-07T22:15:05;2.60;;;1.25;;
63900;SDS011;50538;53.482;10.294;2023-05-07T22:25:11;3.45;;;1.50;;
63900;SDS011;50538;53.482;10.294;2023-05-07T22:35:14;1.30;;;1.00;;
63900;SDS011;50538;53.482;10.294;2023-05-07T22:45:14;1.30;;;0.77;;
63900;SDS011;50538;53.482;10.294;2023-05-07T22:55:17;2.75;;;1.10;;
63900;SDS011;50538;53.482;10.294;2023-05-07T23:05:18;2.47;;;1.17;;
63900;SDS011;50538;53.482;10.294;2023-05-07T23:15:19;1.90;;;1.10;;
63900;SDS011;50538;53.482;10.294;2023-05-07T23:25:19;1.95;;;1.10;;
63900;SDS011;50538;53.482;10.294;2023-05-07T23:35:20;3.20;;;1.25;;
63900;SDS011;50538;53.482;10.294;2023-05-07T23:45:26;2.80;;;1.38;;
63900;SDS011;50538;53.482;10.294;2023-05-07T23:55:39;2.33;;;1.17;;
